Time;durP1;ratioP1;P1;durP2;ratioP2;P2;SDS_P1;SDS_P2;PMS_P1;PMS_P2;Temp;Humidity;BMP_temperature;BMP_pressure;BME280_temperature;BME280_humidity;BME280_pressure;Samples;Min_cycle;Max_cycle;Signal;HPM_P1;HPM_P2
2022/06/08 00:00:26;;;;;;;15.73;13.27;;;18.70;99.90;;;;;;4994471;28;20029;-90
2022/06/08 00:03:00;;;;;;;16.70;13.43;;;18.70;99.90;;;;;;4978491;28;20154;-91
2022/06/08 00:05:26;;;;;;;15.82;12.68;;;18.70;99.90;;;;;;4994265;28;20026;-91
2022/06/08 00:07:52;;;;;;;15.07;12.13;;;18.60;99.90;;;;;;4994458;28;20023;-91
2022/06/08 00:10:18;;;;;;;15.20;12.70;;;18.70;99.90;;;;;;4977926;28;20034;-91
2022/06/08 00:12:44;;;;;;;19.63;13.23;;;18.60;99.90;;;;;;4994331;28;20408;-91
2022/06/08 00:15:11;;;;;;;15.98;12.45;;;18.60;99.90;;;;;;4978024;28;20383;-91
2022/06/08 00:17:37;;;;;;;15.05;11.90;;;18.60;99.90;;;;;;4994017;28;20471;-91
2022/06/08 00:20:05;;;;;;;16.83;12.65;;;18.60;99.90;;;;;;4962041;28;20050;-92
2022/06/08 00:22:30;;;;;;;15.77;13.23;;;18.50;99.90;;;;;;4961858;28;20073;-91
2022/06/08 00:24:56;;;;;;;15.68;12.57;;;18.40;99.90;;;;;;4985810;28;20026;-91
2022/06/08 00:27:22;;;;;;;15.20;12.65;;;18.40;99.90;;;;;;4997545;28;20420;-91
2022/06/08 00:29:47;;;;;;;15.95;12.65;;;18.30;99.90;;;;;;4997359;28;20379;-91
2022/06/08 00:32:13;;;;;;;17.70;11.98;;;18.20;99.90;;;;;;4995983;28;20033;-91
2022/06/08 00:34:39;;;;;;;13.15;11.43;;;18.20;99.90;;;;;;5013849;28;20045;-92
2022/06/08 00:37:05;;;;;;;14.40;12.52;;;18.30;99.90;;;;;;5004210;28;20029;-91
2022/06/08 00:39:30;;;;;;;13.27;11.70;;;18.30;99.90;;;;;;4982726;28;20019;-90
2022/06/08 00:42:01;;;;;;;13.68;11.35;;;18.20;99.90;;;;;;5001887;28;20076;-91
2022/06/08 00:44:37;;;;;;;14.05;12.55;;;18.30;99.90;;;;;;4999536;28;20022;-91
2022/06/08 00:47:04;;;;;;;15.98;12.13;;;18.30;99.90;;;;;;4997183;28;20030;-91
2022/06/08 00:49:39;;;;;;;15.02;12.05;;;18.30;99.90;;;;;;5004529;28;20037;-91
2022/06/08 00:52:06;;;;;;;16.08;13.65;;;18.30;99.90;;;;;;5017187;28;20077;-90
2022/06/08 00:54:36;;;;;;;16.02;13.80;;;18.30;99.90;;;;;;5017233;28;20364;-91
2022/06/08 00:57:09;;;;;;;15.13;13.52;;;18.30;99.90;;;;;;5011102;28;20464;-90
2022/06/08 00:59:37;;;;;;;17.60;13.20;;;18.30;99.90;;;;;;4997940;28;20026;-91
2022/06/08 01:02:06;;;;;;;16.73;13.15;;;18.30;99.90;;;;;;5002515;28;20022;-90
2022/06/08 01:08:25;;;;;;;17.20;13.27;;;18.30;99.90;;;;;;4992908;28;20041;-90
2022/06/08 01:10:56;;;;;;;16.90;14.65;;;18.20;99.90;;;;;;4992478;28;20396;-91
2022/06/08 01:13:22;;;;;;;17.25;13.68;;;18.10;99.90;;;;;;5000590;28;20022;-91
2022/06/08 01:15:49;;;;;;;17.58;14.18;;;18.10;99.90;;;;;;4971268;28;20518;-91
2022/06/08 01:18:15;;;;;;;17.60;14.02;;;18.00;99.90;;;;;;4998766;28;20062;-90
2022/06/08 01:20:47;;;;;;;17.50;14.68;;;18.00;99.90;;;;;;5006720;28;20529;-91
2022/06/08 01:23:13;;;;;;;16.02;13.93;;;18.00;99.90;;;;;;5013734;28;20120;-91
2022/06/08 01:25:53;;;;;;;17.83;14.90;;;18.00;99.90;;;;;;4981031;28;20031;-91
2022/06/08 01:28:35;;;;;;;18.60;15.63;;;17.90;99.90;;;;;;4999514;28;20054;-91
2022/06/08 01:31:07;;;;;;;18.20;14.63;;;17.90;99.90;;;;;;5005547;28;20085;-90
2022/06/08 01:33:47;;;;;;;17.42;14.63;;;17.90;99.90;;;;;;5000633;28;20033;-91
2022/06/08 01:36:16;;;;;;;17.55;14.80;;;17.90;99.90;;;;;;5016112;28;20486;-91
2022/06/08 01:38:47;;;;;;;16.75;14.70;;;17.90;99.90;;;;;;5016369;28;20045;-91
2022/06/08 01:41:31;;;;;;;17.23;15.15;;;17.80;99.90;;;;;;5015743;28;20419;-90
2022/06/08 01:44:07;;;;;;;21.15;16.10;;;17.80;99.90;;;;;;4995012;28;20062;-90
2022/06/08 01:46:49;;;;;;;18.92;16.20;;;17.80;99.90;;;;;;5010423;28;20018;-90
2022/06/08 01:49:36;;;;;;;20.60;16.85;;;17.90;99.90;;;;;;5015922;28;20017;-91
2022/06/08 01:52:20;;;;;;;19.23;15.23;;;17.80;99.90;;;;;;5001971;28;20061;-90
2022/06/08 01:55:09;;;;;;;21.98;17.40;;;17.80;99.90;;;;;;4990068;28;20018;-91
2022/06/08 01:57:49;;;;;;;19.58;16.20;;;17.80;99.90;;;;;;4979589;28;20026;-91
2022/06/08 02:00:24;;;;;;;22.48;17.50;;;17.70;99.90;;;;;;4980072;28;20488;-92
2022/06/08 02:03:11;;;;;;;19.23;16.10;;;17.70;99.90;;;;;;4980136;28;20057;-91
2022/06/08 02:06:24;;;;;;;23.20;18.80;;;17.70;99.90;;;;;;4980055;28;20030;-91
2022/06/08 02:08:57;;;;;;;19.88;16.83;;;17.70;99.90;;;;;;4996622;28;20392;-92
2022/06/08 02:11:48;;;;;;;22.48;18.92;;;17.60;99.90;;;;;;4999659;28;20018;-92
2022/06/08 02:14:27;;;;;;;22.80;19.05;;;17.60;99.90;;;;;;4995800;28;20057;-90
2022/06/08 02:17:13;;;;;;;22.77;19.00;;;17.60;99.90;;;;;;4986329;28;20050;-92
2022/06/08 02:19:51;;;;;;;24.60;20.55;;;17.60;99.90;;;;;;4991999;28;20061;-91
2022/06/08 02:22:25;;;;;;;23.33;19.13;;;17.60;99.90;;;;;;4999485;28;20467;-91
2022/06/08 02:24:59;;;;;;;25.10;20.70;;;17.50;99.90;;;;;;4994695;28;20026;-92
2022/06/08 02:27:40;;;;;;;29.40;20.02;;;17.60;99.90;;;;;;4999009;28;20026;-91
2022/06/08 02:30:17;;;;;;;24.70;20.45;;;17.60;99.90;;;;;;4999247;28;20079;-91
2022/06/08 02:35:49;;;;;;;25.08;20.83;;;17.60;99.90;;;;;;4997218;28;20053;-93
2022/06/08 02:38:20;;;;;;;25.90;20.88;;;17.60;99.90;;;;;;4979761;28;20472;-91
2022/06/08 02:40:54;;;;;;;24.17;20.88;;;17.60;99.90;;;;;;4979401;28;20387;-91
2022/06/08 02:43:27;;;;;;;24.23;20.52;;;17.50;99.90;;;;;;4979399;28;20026;-91
2022/06/08 02:46:06;;;;;;;26.45;20.67;;;17.60;99.90;;;;;;4979402;28;20038;-91
2022/06/08 02:48:32;;;;;;;26.25;20.38;;;17.60;99.90;;;;;;4979402;28;20061;-91
2022/06/08 02:50:58;;;;;;;21.17;18.77;;;17.50;99.90;;;;;;4998587;28;20479;-92
2022/06/08 02:53:28;;;;;;;23.33;19.02;;;17.50;99.90;;;;;;4989572;28;20072;-93
2022/06/08 02:56:14;;;;;;;24.77;20.20;;;17.50;99.90;;;;;;5012547;28;20471;-91
2022/06/08 02:58:49;;;;;;;28.25;20.80;;;17.60;99.90;;;;;;4998584;28;20026;-91
2022/06/08 03:01:34;;;;;;;24.65;19.65;;;17.50;99.90;;;;;;4998674;28;20080;-91
2022/06/08 03:04:14;;;;;;;24.65;20.40;;;17.50;99.90;;;;;;5000207;28;20026;-90
2022/06/08 03:06:51;;;;;;;25.63;21.23;;;17.50;99.90;;;;;;5018304;28;20049;-91
2022/06/08 03:09:18;;;;;;;26.02;22.02;;;17.50;99.90;;;;;;5017713;28;20029;-91
2022/06/08 03:11:51;;;;;;;24.38;20.02;;;17.50;99.90;;;;;;5017741;28;20472;-92
2022/06/08 03:14:17;;;;;;;28.05;22.45;;;17.50;99.90;;;;;;5016855;28;20022;-91
2022/06/08 03:17:04;;;;;;;26.50;21.33;;;17.40;99.90;;;;;;4998188;28;20018;-91
2022/06/08 03:19:32;;;;;;;27.20;21.65;;;17.40;99.90;;;;;;5000867;28;20077;-91
2022/06/08 03:21:58;;;;;;;26.75;21.55;;;17.40;99.90;;;;;;5017839;28;20021;-91
2022/06/08 03:24:45;;;;;;;25.58;21.27;;;17.30;99.90;;;;;;4987315;28;20026;-91
2022/06/08 03:27:11;;;;;;;25.13;21.42;;;17.30;99.90;;;;;;5032842;28;20022;-91
2022/06/08 03:29:37;;;;;;;25.65;21.80;;;17.20;99.90;;;;;;5013203;28;20022;-92
2022/06/08 03:32:04;;;;;;;25.98;20.92;;;17.20;99.90;;;;;;4998208;28;20487;-91
2022/06/08 03:34:30;;;;;;;23.95;21.05;;;17.20;99.90;;;;;;5021260;28;20535;-92
2022/06/08 03:36:56;;;;;;;25.00;21.38;;;17.20;99.90;;;;;;5014312;28;20044;-90
2022/06/08 03:39:21;;;;;;;25.83;21.33;;;17.20;99.90;;;;;;5021822;28;20049;-90
2022/06/08 03:41:47;;;;;;;23.83;20.58;;;17.20;99.90;;;;;;5001331;28;20037;-91
2022/06/08 03:44:13;;;;;;;24.88;20.98;;;17.20;99.90;;;;;;4995792;28;20073;-90
2022/06/08 03:46:44;;;;;;;26.60;21.42;;;17.20;99.90;;;;;;4997538;28;20033;-91
2022/06/08 03:49:11;;;;;;;25.30;20.40;;;17.20;99.90;;;;;;5014801;28;20076;-90
2022/06/08 03:51:39;;;;;;;25.38;20.63;;;17.10;99.90;;;;;;4997721;28;20093;-91
2022/06/08 03:54:23;;;;;;;23.95;19.73;;;17.20;99.90;;;;;;5011169;28;20026;-91
2022/06/08 03:56:53;;;;;;;24.48;19.70;;;17.10;99.90;;;;;;4994565;28;20022;-91
2022/06/08 04:02:41;;;;;;;26.63;20.75;;;17.10;99.90;;;;;;5015374;28;20024;-91
2022/06/08 04:05:09;;;;;;;25.38;19.48;;;17.10;99.90;;;;;;4951886;28;20053;-91
2022/06/08 04:07:34;;;;;;;23.50;19.83;;;17.10;99.90;;;;;;5022238;28;20026;-91
2022/06/08 04:10:00;;;;;;;26.98;20.80;;;17.10;99.90;;;;;;4988431;28;20506;-92
2022/06/08 04:12:27;;;;;;;25.45;20.67;;;17.10;99.90;;;;;;5013890;28;20022;-91
2022/06/08 04:14:52;;;;;;;23.88;20.20;;;17.10;99.90;;;;;;5013894;28;20026;-92
2022/06/08 04:17:18;;;;;;;22.60;20.17;;;17.10;99.90;;;;;;4997593;28;20391;-92
2022/06/08 04:19:44;;;;;;;24.63;19.95;;;17.10;99.90;;;;;;5013734;28;20030;-92
2022/06/08 04:22:10;;;;;;;23.25;19.98;;;17.10;99.90;;;;;;4985843;28;20035;-90
2022/06/08 04:24:36;;;;;;;25.17;20.55;;;17.10;99.90;;;;;;4973216;28;20032;-92
2022/06/08 04:27:02;;;;;;;24.08;19.88;;;17.10;99.90;;;;;;5017776;28;20025;-91
2022/06/08 04:29:27;;;;;;;23.10;20.13;;;17.10;99.90;;;;;;5017165;28;20018;-91
2022/06/08 04:31:53;;;;;;;22.95;19.70;;;17.10;99.90;;;;;;4998026;28;20034;-91
2022/06/08 04:34:19;;;;;;;24.02;19.58;;;17.10;99.90;;;;;;5014772;28;20153;-91
2022/06/08 04:36:45;;;;;;;33.63;21.15;;;17.10;99.90;;;;;;5017475;28;20029;-91
2022/06/08 04:39:13;;;;;;;25.63;20.55;;;17.10;99.90;;;;;;4983583;28;20034;-91
2022/06/08 04:41:39;;;;;;;26.83;22.58;;;17.10;99.90;;;;;;4997413;28;20028;-92
2022/06/08 04:44:05;;;;;;;28.42;23.10;;;17.00;99.90;;;;;;4981589;28;20466;-91
2022/06/08 04:46:31;;;;;;;28.45;23.45;;;17.00;99.90;;;;;;5007369;28;20030;-91
2022/06/08 04:48:57;;;;;;;30.10;25.25;;;17.00;99.90;;;;;;5013565;28;20117;-91
2022/06/08 04:51:25;;;;;;;27.17;24.10;;;17.00;99.90;;;;;;5000473;28;20123;-91
2022/06/08 04:53:51;;;;;;;33.75;26.35;;;17.00;99.90;;;;;;5007205;28;20033;-91
2022/06/08 04:56:17;;;;;;;27.48;24.52;;;17.00;99.90;;;;;;5008912;28;20464;-90
2022/06/08 04:58:42;;;;;;;26.88;23.23;;;17.00;99.90;;;;;;5017288;28;20052;-92
2022/06/08 05:01:08;;;;;;;25.73;22.77;;;17.00;99.90;;;;;;5000561;28;20193;-91
2022/06/08 05:03:35;;;;;;;28.83;24.25;;;17.00;99.90;;;;;;5011118;28;20467;-93
2022/06/08 05:06:03;;;;;;;26.10;23.05;;;17.00;99.90;;;;;;5022826;23;20076;-87
2022/06/08 05:08:29;;;;;;;26.05;22.00;;;17.00;99.90;;;;;;4982841;28;20072;-87
2022/06/08 05:10:56;;;;;;;25.42;21.17;;;17.00;99.90;;;;;;4983650;28;20058;-87
2022/06/08 05:13:22;;;;;;;21.88;19.33;;;17.00;99.90;;;;;;4980229;28;20026;-87
2022/06/08 05:15:49;;;;;;;21.63;19.33;;;17.10;99.90;;;;;;4980154;28;20023;-86
2022/06/08 05:18:18;;;;;;;21.10;18.17;;;17.10;99.90;;;;;;4982213;28;20030;-86
2022/06/08 05:20:44;;;;;;;22.17;17.42;;;17.10;99.90;;;;;;4983760;28;20479;-89
2022/06/08 05:23:24;;;;;;;22.05;17.60;;;17.10;99.90;;;;;;5017316;28;20105;-90
2022/06/08 05:25:49;;;;;;;22.50;17.08;;;17.10;99.90;;;;;;5000636;28;20382;-88
2022/06/08 05:28:15;;;;;;;17.67;15.15;;;17.10;99.90;;;;;;4984986;28;20029;-86
2022/06/08 05:30:43;;;;;;;18.75;15.48;;;17.10;99.90;;;;;;4997755;28;20022;-87
2022/06/08 05:33:10;;;;;;;18.08;15.45;;;17.10;99.90;;;;;;4974988;28;20091;-86
2022/06/08 05:35:37;;;;;;;18.15;15.38;;;17.20;99.90;;;;;;4979436;28;20022;-86
2022/06/08 05:38:10;;;;;;;19.05;14.50;;;17.20;99.90;;;;;;5001146;28;20117;-87
2022/06/08 05:40:37;;;;;;;17.00;14.32;;;17.20;99.90;;;;;;4997179;28;20053;-86
2022/06/08 05:43:05;;;;;;;16.17;13.68;;;17.20;99.90;;;;;;5015966;28;20092;-87
2022/06/08 05:45:31;;;;;;;18.02;13.80;;;17.20;99.90;;;;;;4996904;28;20056;-86
2022/06/08 05:47:57;;;;;;;16.63;13.75;;;17.20;99.90;;;;;;4998588;28;20081;-86
2022/06/08 05:50:24;;;;;;;15.43;13.05;;;17.20;99.90;;;;;;4998578;28;20045;-86
2022/06/08 05:52:50;;;;;;;14.20;12.68;;;17.30;99.90;;;;;;5016841;28;20109;-87
2022/06/08 05:55:18;;;;;;;14.93;11.38;;;17.30;99.90;;;;;;5016021;28;20443;-86
2022/06/08 05:57:44;;;;;;;13.82;11.02;;;17.30;99.90;;;;;;4998349;28;20014;-87
2022/06/08 06:00:14;;;;;;;15.60;12.15;;;17.40;99.90;;;;;;4998505;28;20053;-87
2022/06/08 06:02:40;;;;;;;14.23;10.88;;;17.40;99.90;;;;;;4998322;28;20616;-86
2022/06/08 06:05:06;;;;;;;13.95;11.93;;;17.50;99.90;;;;;;5016866;28;20462;-86
2022/06/08 06:07:32;;;;;;;15.05;13.13;;;17.50;99.90;;;;;;4993589;28;20042;-86
2022/06/08 06:10:02;;;;;;;16.02;14.32;;;17.50;99.90;;;;;;5019562;28;20060;-86
2022/06/08 06:12:28;;;;;;;14.88;13.23;;;17.60;99.90;;;;;;5017889;28;20487;-87
2022/06/08 06:14:54;;;;;;;18.77;14.40;;;17.60;99.90;;;;;;4985413;28;20014;-87
2022/06/08 06:17:20;;;;;;;15.10;13.50;;;17.60;99.90;;;;;;5025110;28;20033;-86
2022/06/08 06:19:46;;;;;;;15.57;13.90;;;17.70;99.90;;;;;;5000662;28;20022;-87
2022/06/08 06:22:11;;;;;;;16.55;13.82;;;17.70;99.90;;;;;;4998274;28;20053;-87
2022/06/08 06:24:37;;;;;;;16.88;13.23;;;17.70;99.90;;;;;;5029440;28;20017;-87
2022/06/08 06:27:04;;;;;;;15.93;13.82;;;17.80;99.90;;;;;;5019872;28;20048;-87
2022/06/08 06:29:30;;;;;;;14.65;12.27;;;17.80;99.90;;;;;;5003292;28;20436;-87
2022/06/08 06:31:58;;;;;;;14.60;12.20;;;17.80;99.90;;;;;;5034898;28;20027;-86
2022/06/08 06:34:26;;;;;;;14.45;12.85;;;17.80;99.90;;;;;;5019236;28;20028;-86
2022/06/08 06:36:53;;;;;;;13.90;12.40;;;17.90;99.90;;;;;;5017808;28;20013;-87
2022/06/08 06:39:20;;;;;;;15.98;12.30;;;17.90;99.90;;;;;;5036635;28;20036;-86
2022/06/08 06:41:47;;;;;;;18.23;12.65;;;17.90;99.90;;;;;;5013899;28;20021;-86
2022/06/08 06:44:13;;;;;;;15.48;12.07;;;17.90;99.90;;;;;;5018597;28;20036;-87
2022/06/08 06:46:39;;;;;;;16.25;12.50;;;17.90;99.90;;;;;;5019435;28;20021;-87
2022/06/08 06:49:04;;;;;;;15.40;11.70;;;17.90;99.90;;;;;;5003875;28;20025;-87
2022/06/08 06:51:30;;;;;;;12.65;10.20;;;17.90;99.90;;;;;;5020779;28;20033;-87
2022/06/08 06:53:56;;;;;;;13.57;10.90;;;17.90;99.90;;;;;;5025897;28;20072;-87
2022/06/08 06:56:22;;;;;;;11.40;9.82;;;17.90;99.90;;;;;;5026195;28;20090;-86
2022/06/08 06:58:48;;;;;;;10.65;9.25;;;18.00;99.90;;;;;;5007842;28;20026;-87
2022/06/08 07:01:16;;;;;;;11.60;8.80;;;18.00;99.90;;;;;;5026815;28;20052;-87
2022/06/08 07:03:43;;;;;;;13.52;8.43;;;18.00;99.90;;;;;;5002663;28;20029;-85
2022/06/08 07:06:09;;;;;;;10.80;8.50;;;18.00;99.90;;;;;;5041552;28;20064;-86
2022/06/08 07:08:35;;;;;;;10.82;8.05;;;18.00;99.90;;;;;;5017163;28;20069;-87
2022/06/08 07:13:45;;;;;;;11.02;8.38;;;18.10;99.90;;;;;;5019631;28;20040;-87
2022/06/08 07:16:10;;;;;;;11.48;8.45;;;18.10;99.90;;;;;;5004196;28;20390;-86
2022/06/08 07:18:36;;;;;;;10.35;7.85;;;18.10;99.90;;;;;;4996972;28;20053;-87
2022/06/08 07:21:02;;;;;;;11.60;8.48;;;18.10;99.90;;;;;;4993732;28;20518;-87
2022/06/08 07:23:28;;;;;;;10.20;8.00;;;18.10;99.90;;;;;;4996850;28;20467;-87
2022/06/08 07:25:54;;;;;;;9.27;7.63;;;18.10;99.90;;;;;;5007899;28;20036;-87
2022/06/08 07:28:19;;;;;;;10.05;7.63;;;18.20;99.90;;;;;;4999993;28;20029;-87
2022/06/08 07:30:45;;;;;;;9.13;6.93;;;18.20;99.90;;;;;;5000528;28;20433;-87
2022/06/08 07:33:11;;;;;;;11.40;7.22;;;18.10;99.90;;;;;;5000148;28;20026;-87
2022/06/08 07:35:37;;;;;;;9.15;6.70;;;18.20;99.90;;;;;;5027335;28;20038;-87
2022/06/08 07:38:02;;;;;;;11.18;7.95;;;18.20;99.90;;;;;;4977399;28;20037;-87
2022/06/08 07:40:28;;;;;;;8.32;5.97;;;18.20;99.90;;;;;;5000342;28;20079;-87
2022/06/08 07:42:54;;;;;;;7.90;6.32;;;18.20;99.90;;;;;;4984072;28;20505;-87
2022/06/08 07:45:19;;;;;;;9.05;6.45;;;18.30;99.90;;;;;;5013279;28;20033;-87
2022/06/08 07:50:30;;;;;;;7.70;6.03;;;18.30;99.90;;;;;;5009206;28;20095;-87
2022/06/08 07:52:55;;;;;;;9.18;6.57;;;18.40;99.90;;;;;;5038456;28;20021;-87
2022/06/08 07:55:22;;;;;;;9.88;5.90;;;18.40;99.90;;;;;;5005194;28;20471;-88
2022/06/08 07:57:48;;;;;;;8.48;6.32;;;18.40;99.90;;;;;;5008675;28;20029;-88
2022/06/08 08:00:15;;;;;;;9.15;6.18;;;18.50;99.90;;;;;;5028036;28;20514;-88
2022/06/08 08:02:41;;;;;;;8.48;5.03;;;18.50;99.90;;;;;;5024643;28;20056;-87
2022/06/08 08:05:12;;;;;;;7.43;4.32;;;18.50;99.90;;;;;;5028378;28;20501;-88
2022/06/08 08:07:39;;;;;;;7.18;5.03;;;18.50;99.90;;;;;;5010540;28;20084;-89
2022/06/08 08:10:09;;;;;;;9.18;5.30;;;18.60;99.90;;;;;;5010070;28;20097;-88
2022/06/08 08:12:36;;;;;;;10.35;5.45;;;18.60;99.90;;;;;;5040997;28;20148;-88
2022/06/08 08:15:02;;;;;;;9.85;4.93;;;18.70;99.90;;;;;;5008044;28;20026;-90
2022/06/08 08:17:28;;;;;;;7.30;4.20;;;18.80;99.90;;;;;;5042254;28;20038;-88
2022/06/08 08:19:54;;;;;;;7.18;3.88;;;18.80;99.90;;;;;;5023198;28;20021;-88
2022/06/08 08:22:21;;;;;;;8.35;4.22;;;18.80;99.90;;;;;;5042067;28;20092;-88
2022/06/08 08:24:47;;;;;;;7.55;4.10;;;18.90;99.90;;;;;;5006439;28;20079;-87
2022/06/08 08:27:13;;;;;;;7.00;4.25;;;18.90;99.90;;;;;;5018893;28;20017;-85
2022/06/08 08:29:39;;;;;;;7.80;4.30;;;19.00;99.90;;;;;;4991149;28;20032;-87
2022/06/08 08:32:05;;;;;;;9.73;4.35;;;19.10;99.90;;;;;;5025911;28;20208;-86
2022/06/08 08:34:32;;;;;;;9.05;4.38;;;19.20;99.90;;;;;;5001577;28;20060;-86
2022/06/08 08:36:58;;;;;;;14.95;4.55;;;19.20;99.90;;;;;;5000377;28;20493;-90
2022/06/08 08:39:24;;;;;;;9.00;4.32;;;19.30;99.90;;;;;;5016645;28;20034;-89
2022/06/08 08:44:40;;;;;;;6.03;3.70;;;19.40;99.90;;;;;;5034318;28;20049;-84
2022/06/08 08:47:14;;;;;;;6.47;3.88;;;19.40;99.90;;;;;;5033182;28;20053;-86
2022/06/08 08:49:47;;;;;;;7.30;3.80;;;19.50;99.90;;;;;;5015381;28;20025;-87
2022/06/08 08:52:22;;;;;;;6.93;4.10;;;19.60;99.90;;;;;;5015035;28;20108;-85
2022/06/08 08:54:59;;;;;;;6.07;3.80;;;19.60;99.90;;;;;;5015436;28;20109;-85
2022/06/08 08:57:36;;;;;;;6.72;3.53;;;19.70;99.90;;;;;;5015045;28;20029;-85
2022/06/08 09:00:23;;;;;;;8.25;4.40;;;19.70;99.90;;;;;;5015106;28;20021;-85
2022/06/08 09:05:35;;;;;;;7.90;3.80;;;19.70;99.90;;;;;;5014104;28;20510;-85
2022/06/08 09:08:01;;;;;;;10.73;4.40;;;19.80;99.90;;;;;;4984993;28;20053;-85
2022/06/08 09:10:27;;;;;;;7.80;3.97;;;19.80;99.90;;;;;;4986496;28;20026;-85
2022/06/08 09:12:53;;;;;;;6.95;4.45;;;19.80;99.90;;;;;;4998642;28;20030;-85
2022/06/08 09:15:47;;;;;;;10.10;4.32;;;19.80;99.90;;;;;;5001147;28;20037;-86
2022/06/08 09:18:35;;;;;;;7.78;4.43;;;19.90;99.90;;;;;;5036200;28;20033;-86
2022/06/08 09:21:26;;;;;;;12.70;4.32;;;19.90;99.90;;;;;;5036172;28;20033;-85
2022/06/08 09:23:55;;;;;;;8.20;4.32;;;20.00;99.90;;;;;;5018310;28;20053;-84
2022/06/08 09:26:23;;;;;;;8.48;4.30;;;20.00;99.90;;;;;;5018530;28;20041;-83
2022/06/08 09:29:13;;;;;;;9.20;4.68;;;20.00;99.90;;;;;;5018139;28;20029;-84
2022/06/08 09:31:40;;;;;;;6.53;4.30;;;19.90;99.90;;;;;;5018732;28;20356;-84
2022/06/08 09:34:19;;;;;;;7.45;4.35;;;19.90;99.90;;;;;;5002707;28;20026;-84
2022/06/08 09:37:02;;;;;;;9.60;4.57;;;19.90;99.90;;;;;;5020234;28;20033;-84
2022/06/08 09:39:28;;;;;;;8.40;4.28;;;20.00;99.90;;;;;;5021855;28;20029;-84
2022/06/08 09:41:54;;;;;;;7.72;4.25;;;20.00;99.90;;;;;;5032583;28;20452;-85
2022/06/08 09:44:29;;;;;;;8.90;3.53;;;20.00;99.90;;;;;;5020414;28;20092;-87
2022/06/08 09:52:50;;;;;;;13.30;4.13;;;20.10;99.90;;;;;;5046103;28;20036;-87
2022/06/08 09:55:23;;;;;;;6.30;3.22;;;20.10;99.90;;;;;;5018598;28;20109;-88
2022/06/08 09:58:00;;;;;;;9.27;3.58;;;20.10;99.90;;;;;;5019068;28;20049;-88
2022/06/08 10:00:46;;;;;;;9.70;3.88;;;20.10;99.90;;;;;;5019017;28;20440;-88
2022/06/08 10:03:44;;;;;;;5.10;2.70;;;20.10;99.90;;;;;;5018636;28;20029;-90
2022/06/08 10:06:30;;;;;;;7.15;2.67;;;20.10;99.90;;;;;;4965624;28;20033;-89
2022/06/08 10:09:07;;;;;;;9.60;3.53;;;20.10;99.90;;;;;;5018713;28;20120;-88
2022/06/08 10:11:39;;;;;;;6.97;3.00;;;20.10;99.90;;;;;;5018342;28;20479;-88
2022/06/08 10:14:11;;;;;;;7.75;3.30;;;20.10;99.90;;;;;;5036471;28;20453;-86
2022/06/08 10:16:45;;;;;;;6.43;2.70;;;20.10;99.90;;;;;;5018569;28;20386;-87
2022/06/08 10:19:20;;;;;;;6.85;2.97;;;20.10;99.90;;;;;;5018094;28;20112;-88
2022/06/08 10:21:49;;;;;;;6.93;2.90;;;20.10;99.90;;;;;;5036697;28;20071;-88
2022/06/08 10:24:31;;;;;;;7.72;3.35;;;20.20;99.90;;;;;;5017645;28;20080;-88
2022/06/08 10:27:23;;;;;;;5.93;2.80;;;20.20;99.90;;;;;;5017710;28;20459;-88
2022/06/08 10:30:07;;;;;;;7.85;2.70;;;20.10;99.90;;;;;;5017913;28;20036;-87
2022/06/08 10:32:49;;;;;;;7.03;2.40;;;20.10;99.90;;;;;;5017914;28;20029;-88
2022/06/08 10:35:55;;;;;;;6.30;2.47;;;20.10;99.90;;;;;;5017781;28;20014;-88
2022/06/08 10:38:33;;;;;;;7.97;2.70;;;20.10;99.90;;;;;;5020938;28;20037;-88
2022/06/08 10:41:04;;;;;;;4.88;2.35;;;20.10;99.90;;;;;;5035635;28;20028;-88
2022/06/08 10:43:31;;;;;;;;;;;20.10;99.90;;;;;;5018123;28;20124;-88
2022/06/08 10:46:01;;;;;;;7.85;2.70;;;20.10;99.90;;;;;;5017566;28;19909;-89
2022/06/08 10:48:56;;;;;;;9.32;2.78;;;20.10;99.90;;;;;;5017277;28;20467;-88
2022/06/08 10:51:31;;;;;;;5.28;2.60;;;20.10;99.90;;;;;;5001246;28;20038;-88
2022/06/08 10:56:41;;;;;;;6.53;2.47;;;20.00;99.90;;;;;;5020448;28;20080;-88
2022/06/08 10:59:07;;;;;;;7.45;2.50;;;19.90;99.90;;;;;;5017019;28;20021;-88
2022/06/08 11:01:36;;;;;;;10.15;3.08;;;19.80;99.90;;;;;;5017633;28;20398;-89
2022/06/08 11:04:06;;;;;;;11.25;2.53;;;19.70;99.90;;;;;;5018259;28;20041;-89
2022/06/08 11:06:50;;;;;;;;;;;19.60;99.90;;;;;;5004782;28;20029;-89
2022/06/08 11:09:40;;;;;;;9.88;2.65;;;19.50;99.90;;;;;;5025357;28;19917;-89
2022/06/08 11:12:12;;;;;;;7.78;2.70;;;19.40;99.90;;;;;;5038180;28;20037;-88
2022/06/08 11:14:43;;;;;;;9.00;3.50;;;19.40;99.90;;;;;;5010349;28;20536;-88
2022/06/08 11:17:39;;;;;;;8.30;3.22;;;19.40;99.90;;;;;;5026887;28;20067;-88
2022/06/08 11:20:47;;;;;;;8.18;2.78;;;19.40;99.90;;;;;;4991813;28;20037;-91
2022/06/08 11:26:38;;;;;;;10.70;2.80;;;19.40;99.90;;;;;;4935581;29;20066;-88
2022/06/08 11:29:19;;;;;;;7.30;3.00;;;19.40;99.90;;;;;;5010596;28;20042;-87
2022/06/08 11:31:44;;;;;;;;;;;19.40;99.90;;;;;;5035556;28;20048;-87
2022/06/08 11:34:19;;;;;;;7.90;2.83;;;19.40;99.90;;;;;;5016755;28;20354;-88
2022/06/08 11:37:13;;;;;;;8.98;2.83;;;19.30;99.90;;;;;;5016529;28;20021;-87
2022/06/08 11:39:57;;;;;;;7.93;2.65;;;19.30;99.90;;;;;;5034200;28;20021;-87
2022/06/08 11:42:32;;;;;;;7.00;2.60;;;19.20;99.90;;;;;;5002685;28;20033;-87
2022/06/08 11:45:07;;;;;;;6.03;2.45;;;19.10;99.90;;;;;;5031090;28;20487;-87
2022/06/08 11:47:52;;;;;;;8.65;2.58;;;19.00;99.90;;;;;;5016153;28;20487;-87
2022/06/08 11:50:30;;;;;;;8.10;2.83;;;19.00;99.90;;;;;;5034043;28;20029;-87
2022/06/08 11:53:03;;;;;;;7.25;3.20;;;18.90;99.90;;;;;;5016976;28;20029;-88
2022/06/08 11:55:34;;;;;;;9.77;3.22;;;18.90;99.90;;;;;;5016488;28;20021;-88
2022/06/08 11:58:24;;;;;;;;;;;18.80;99.90;;;;;;5017281;28;20029;-87
2022/06/08 12:00:55;;;;;;;6.82;3.35;;;18.80;99.90;;;;;;5016231;28;19905;-87
2022/06/08 12:03:25;;;;;;;;;;;18.80;99.90;;;;;;5016684;28;20025;-87
2022/06/08 12:06:08;;;;;;;7.85;3.80;;;18.80;99.90;;;;;;5015702;28;19909;-87
2022/06/08 12:08:39;;;;;;;7.38;2.85;;;18.80;99.90;;;;;;5016173;28;20104;-88
2022/06/08 12:11:06;;;;;;;6.55;2.38;;;18.80;99.90;;;;;;5013358;28;20032;-86
2022/06/08 12:13:32;;;;;;;9.10;3.00;;;18.70;99.90;;;;;;5013834;28;20060;-87
2022/06/08 12:16:20;;;;;;;10.18;3.13;;;18.70;99.90;;;;;;5033901;28;20014;-87
2022/06/08 12:18:54;;;;;;;7.20;2.88;;;18.60;99.90;;;;;;5036395;28;20017;-86
2022/06/08 12:21:24;;;;;;;8.63;3.40;;;18.60;99.90;;;;;;5001493;28;20447;-87
2022/06/08 12:24:10;;;;;;;8.65;2.50;;;18.60;99.90;;;;;;5016654;28;20508;-87
2022/06/08 12:26:38;;;;;;;7.15;2.88;;;18.50;99.90;;;;;;5035126;28;20032;-87
2022/06/08 12:29:13;;;;;;;6.20;2.20;;;18.50;99.90;;;;;;5039965;28;20037;-87
2022/06/08 12:31:40;;;;;;;7.15;2.42;;;18.50;99.90;;;;;;5037284;28;20030;-87
2022/06/08 12:37:30;;;;;;;7.13;2.90;;;18.40;99.90;;;;;;5032695;28;20036;-87
2022/06/08 12:40:33;;;;;;;9.48;2.55;;;18.30;99.90;;;;;;5012433;28;20072;-86
2022/06/08 12:43:09;;;;;;;7.72;2.67;;;18.40;99.90;;;;;;5032499;28;20084;-86
2022/06/08 12:45:44;;;;;;;7.68;2.75;;;18.40;99.90;;;;;;5018111;28;20053;-87
2022/06/08 12:48:32;;;;;;;9.93;2.75;;;18.40;99.90;;;;;;5005610;28;20113;-86
2022/06/08 12:50:58;;;;;;;8.10;2.38;;;18.40;99.90;;;;;;5016415;28;20021;-87
2022/06/08 12:53:24;;;;;;;6.70;2.70;;;18.40;99.90;;;;;;5002230;28;20052;-87
2022/06/08 12:55:52;;;;;;;6.63;2.78;;;18.40;99.90;;;;;;5002539;28;20025;-87
2022/06/08 12:58:22;;;;;;;7.63;2.97;;;18.30;99.90;;;;;;4995540;28;20026;-86
2022/06/08 13:00:53;;;;;;;6.95;2.45;;;18.30;99.90;;;;;;5023494;28;20030;-87
2022/06/08 13:03:26;;;;;;;9.23;2.25;;;18.30;99.90;;;;;;5025595;28;20101;-87
2022/06/08 13:05:53;;;;;;;6.93;2.33;;;18.20;99.90;;;;;;5006335;28;20030;-89
2022/06/08 13:08:22;;;;;;;9.77;2.63;;;18.20;99.90;;;;;;5019856;28;20110;-88
2022/06/08 13:10:52;;;;;;;6.10;1.90;;;18.10;99.90;;;;;;5036343;28;20044;-87
2022/06/08 13:13:30;;;;;;;7.70;2.50;;;18.10;99.90;;;;;;5003794;28;20116;-88
2022/06/08 13:15:58;;;;;;;6.85;2.58;;;18.10;99.90;;;;;;5019897;28;20079;-87
2022/06/08 13:18:26;;;;;;;10.02;2.72;;;18.10;99.90;;;;;;5037205;28;20100;-87
2022/06/08 13:20:56;;;;;;;6.72;2.08;;;18.10;99.90;;;;;;5018911;28;20525;-86
2022/06/08 13:23:22;;;;;;;5.30;1.83;;;18.10;99.90;;;;;;5018158;28;20029;-87
2022/06/08 13:25:50;;;;;;;8.13;2.13;;;18.00;99.90;;;;;;4998336;28;20068;-88
2022/06/08 13:28:19;;;;;;;6.45;2.33;;;17.90;99.90;;;;;;5003170;28;20034;-87
2022/06/08 13:30:48;;;;;;;6.28;2.15;;;17.80;99.90;;;;;;5049522;28;20022;-84
2022/06/08 13:36:09;;;;;;;5.25;2.20;;;17.80;99.90;;;;;;5046436;28;20033;-85